createdAt,value
2019-04-16T00:00:03.079Z,46.3
2019-04-16T00:00:53.430Z,46.3
2019-04-16T00:01:48.989Z,46.3
2019-04-16T00:02:33.611Z,46.3
2019-04-16T00:03:28.644Z,46.3
2019-04-16T00:04:13.354Z,46.3
2019-04-16T00:05:03.688Z,46.3
2019-04-16T00:05:58.395Z,46.2
2019-04-16T00:06:43.548Z,46.2
2019-04-16T00:07:33.587Z,46.2
2019-04-16T00:08:32.474Z,46.2
2019-04-16T00:09:13.146Z,46.2
2019-04-16T00:10:04.524Z,46.1
2019-04-16T00:10:54.148Z,46.1
2019-04-16T00:11:44.176Z,46.1
2019-04-16T00:12:33.118Z,46.1
2019-04-16T00:13:24.324Z,46.1
2019-04-16T00:14:13.253Z,46.1
2019-04-16T00:15:04.842Z,46.1
2019-04-16T00:15:54.212Z,46.1
2019-04-16T00:16:49.295Z,46.1
2019-04-16T00:17:34.880Z,46.1
2019-04-16T00:18:24.990Z,46.1
2019-04-16T00:19:14.474Z,46
2019-04-16T00:20:10.823Z,46
2019-04-16T00:20:54.873Z,46
2019-04-16T00:21:45.298Z,46
2019-04-16T00:22:34.978Z,46
2019-04-16T00:23:25.032Z,45.9
2019-04-16T00:24:20.973Z,45.9
2019-04-16T00:25:05.280Z,45.9
2019-04-16T00:26:00.260Z,45.9
2019-04-16T00:26:45.020Z,45.9
2019-04-16T00:27:35.625Z,45.9
2019-04-16T00:28:25.108Z,45.9
2019-04-16T00:29:15.737Z,45.9
2019-04-16T00:30:10.387Z,45.9
2019-04-16T00:30:55.422Z,45.8
2019-04-16T00:31:45.924Z,45.8
2019-04-16T00:32:42.610Z,45.8
2019-04-16T00:33:25.195Z,45.8
2019-04-16T00:34:18.777Z,45.8
2019-04-16T00:35:06.399Z,45.8
2019-04-16T00:35:56.364Z,45.8
2019-04-16T00:36:51.354Z,45.8
2019-04-16T00:37:36.374Z,45.8
2019-04-16T00:38:43.230Z,45.8
2019-04-16T00:39:16.267Z,45.8
2019-04-16T00:40:05.827Z,45.7
2019-04-16T00:41:02.216Z,45.7
2019-04-16T00:41:45.942Z,45.7
2019-04-16T00:42:36.744Z,45.7
2019-04-16T00:43:26.217Z,45.7
2019-04-16T00:44:16.357Z,45.6
2019-04-16T00:45:07.219Z,45.6
2019-04-16T00:45:56.619Z,45.6
2019-04-16T00:46:46.521Z,45.6
2019-04-16T00:47:36.011Z,45.6
2019-04-16T00:48:26.596Z,45.6
2019-04-16T00:49:16.551Z,45.6
2019-04-16T00:50:06.768Z,45.6
2019-04-16T00:50:57.381Z,45.6
2019-04-16T00:51:46.906Z,45.6
2019-04-16T00:52:41.960Z,45.6
2019-04-16T00:53:27.221Z,45.6
2019-04-16T00:54:16.753Z,45.5
2019-04-16T00:55:07.216Z,45.5
2019-04-16T00:55:56.578Z,45.5
2019-04-16T00:56:51.814Z,45.5
2019-04-16T00:57:37.308Z,45.5
2019-04-16T00:58:27.346Z,45.4
2019-04-16T00:59:16.818Z,45.4
2019-04-16T01:00:08.075Z,45.4
2019-04-16T01:00:57.583Z,45.4
2019-04-16T01:01:47.833Z,45.4
2019-04-16T01:02:37.929Z,45.4
2019-04-16T01:03:27.691Z,45.4
2019-04-16T01:04:17.810Z,45.4
2019-04-16T01:05:08.153Z,45.4
2019-04-16T01:05:58.393Z,45.3
2019-04-16T01:06:48.204Z,45.4
2019-04-16T01:07:37.164Z,45.3
2019-04-16T01:08:28.090Z,45.3
2019-04-16T01:09:18.438Z,45.3
2019-04-16T01:10:08.491Z,45.3
2019-04-16T01:10:59.047Z,45.3
2019-04-16T01:11:53.775Z,45.3
2019-04-16T01:12:38.431Z,45.3
2019-04-16T01:13:30.214Z,45.3
2019-04-16T01:14:18.787Z,45.3
2019-04-16T01:15:08.760Z,45.2
2019-04-16T01:16:05.108Z,45.2
2019-04-16T01:16:48.983Z,45.2
2019-04-16T01:17:41.364Z,45.2
2019-04-16T01:18:28.515Z,45.2
2019-04-16T01:19:18.580Z,45.2
2019-04-16T01:20:15.537Z,45.2
2019-04-16T01:20:59.282Z,45.2
2019-04-16T01:21:50.178Z,45.1
2019-04-16T01:22:39.109Z,45.1
2019-04-16T01:23:29.749Z,45.1
2019-04-16T01:24:25.153Z,45.1
2019-04-16T01:25:09.783Z,45.1
2019-04-16T01:26:02.059Z,45.1
2019-04-16T01:26:49.949Z,45.1
2019-04-16T01:27:39.197Z,45.1
2019-04-16T01:28:35.024Z,45.1
2019-04-16T01:29:19.305Z,45.1
2019-04-16T01:30:11.741Z,45
2019-04-16T01:31:00.230Z,45
2019-04-16T01:31:50.032Z,45
2019-04-16T01:32:44.569Z,45
2019-04-16T01:33:29.683Z,45
2019-04-16T01:34:23.476Z,44.9
2019-04-16T01:35:25.224Z,44.9
2019-04-16T01:36:00.299Z,44.9
2019-04-16T01:36:56.319Z,44.9
2019-04-16T01:37:39.394Z,44.9
2019-04-16T01:38:33.551Z,44.9
2019-04-16T01:39:23.252Z,44.9
2019-04-16T01:40:10.681Z,44.9
2019-04-16T01:41:00.473Z,44.9
2019-04-16T01:41:56.313Z,44.9
2019-04-16T01:42:40.864Z,44.9
2019-04-16T01:43:31.754Z,44.9
2019-04-16T01:44:20.125Z,44.8
2019-04-16T01:45:11.340Z,44.8
2019-04-16T01:46:06.878Z,44.8
2019-04-16T01:46:50.611Z,44.8
2019-04-16T01:47:42.273Z,44.8
2019-04-16T01:48:31.521Z,44.8
2019-04-16T01:49:21.330Z,44.8
2019-04-16T01:50:17.027Z,44.8
2019-04-16T01:51:01.723Z,44.8
2019-04-16T01:51:52.539Z,44.8
2019-04-16T01:52:41.356Z,44.8
2019-04-16T01:53:31.380Z,44.7
2019-04-16T01:54:26.928Z,44.7
2019-04-16T01:55:12.298Z,44.7
2019-04-16T01:56:03.306Z,44.7
2019-04-16T01:56:51.597Z,44.7
2019-04-16T01:57:41.952Z,44.8
2019-04-16T01:58:37.570Z,44.9
2019-04-16T01:59:22.055Z,45.3
2019-04-16T02:00:13.900Z,45.4
2019-04-16T02:01:02.046Z,45.8
2019-04-16T02:01:51.721Z,45.9
2019-04-16T02:02:48.069Z,46.2
2019-04-16T02:03:32.198Z,46.4
2019-04-16T02:04:24.628Z,46.7
2019-04-16T02:05:12.391Z,46.9
2019-04-16T02:06:02.902Z,47.1
2019-04-16T02:06:58.255Z,47.1
2019-04-16T02:07:42.239Z,47.3
2019-04-16T02:08:35.232Z,47.3
2019-04-16T02:09:28.041Z,47.3
2019-04-16T02:10:13.045Z,47.4
2019-04-16T02:11:02.938Z,47.4
2019-04-16T02:11:52.751Z,47.4
2019-04-16T02:12:48.424Z,47.5
2019-04-16T02:13:32.829Z,47.5
2019-04-16T02:14:26.479Z,47.5
2019-04-16T02:15:13.631Z,47.5
2019-04-16T02:16:03.502Z,47.6
2019-04-16T02:16:59.159Z,47.6
2019-04-16T02:17:42.869Z,47.6
2019-04-16T02:18:35.307Z,47.7
2019-04-16T02:19:23.609Z,47.8
2019-04-16T02:20:14.231Z,47.8
2019-04-16T02:21:03.986Z,47.8
2019-04-16T02:21:53.187Z,47.9
2019-04-16T02:22:49.328Z,47.9
2019-04-16T02:23:33.853Z,47.9
2019-04-16T02:24:23.668Z,47.9
2019-04-16T02:25:20.284Z,47.9
2019-04-16T02:26:04.339Z,47.9
2019-04-16T02:26:59.393Z,47.9
2019-04-16T02:27:44.426Z,47.9
2019-04-16T02:28:33.388Z,48
2019-04-16T02:29:23.998Z,48
2019-04-16T02:30:14.224Z,48
2019-04-16T02:31:12.757Z,48
2019-04-16T02:31:57.390Z,48.1
2019-04-16T02:32:44.399Z,48.1
2019-04-16T02:33:34.789Z,48.2
2019-04-16T02:34:24.803Z,48.2
2019-04-16T02:35:13.819Z,48.2
2019-04-16T02:36:05.471Z,48.2
2019-04-16T02:37:04.017Z,48.3
2019-04-16T02:37:44.967Z,48.3
2019-04-16T02:38:35.293Z,48.3
2019-04-16T02:39:53.421Z,48.3
2019-04-16T02:40:22.781Z,48.3
2019-04-16T02:41:05.643Z,48.3
2019-04-16T02:42:04.225Z,48.3
2019-04-16T02:42:45.266Z,48.3
2019-04-16T02:43:44.452Z,48.3
2019-04-16T02:44:24.947Z,48.3
2019-04-16T02:45:24.450Z,48.3
2019-04-16T02:46:06.425Z,48.3
2019-04-16T02:46:55.601Z,48.4
2019-04-16T02:47:47.459Z,48.4
2019-04-16T02:48:35.880Z,48.5
2019-04-16T02:49:29.473Z,48.6
2019-04-16T02:50:15.488Z,48.6
2019-04-16T02:51:13.427Z,48.6
2019-04-16T02:51:55.418Z,48.6
2019-04-16T02:52:55.556Z,48.6
2019-04-16T02:53:36.365Z,48.6
2019-04-16T02:54:34.990Z,48.7
2019-04-16T02:55:17.180Z,48.7
2019-04-16T02:56:06.402Z,48.7
2019-04-16T02:56:57.527Z,48.7
2019-04-16T02:57:46.802Z,48.7
2019-04-16T02:58:39.725Z,48.7
2019-04-16T02:59:26.242Z,48.7
2019-04-16T03:00:21.691Z,48.7
2019-04-16T03:01:06.496Z,48.7
2019-04-16T03:01:56.971Z,48.8
2019-04-16T03:02:47.014Z,48.7
2019-04-16T03:03:36.786Z,48.7
2019-04-16T03:07:07.850Z,48.6
2019-04-16T03:07:51.510Z,48.6
2019-04-16T03:08:40.871Z,48.7
2019-04-16T03:09:31.891Z,48.7
2019-04-16T03:10:21.958Z,48.7
2019-04-16T03:11:19.431Z,48.6
2019-04-16T03:12:01.536Z,48.6
2019-04-16T03:12:57.757Z,48.6
2019-04-16T03:13:42.480Z,48.6
2019-04-16T03:14:35.135Z,48.7
2019-04-16T03:15:21.798Z,48.8
2019-04-16T03:16:13.026Z,48.8
2019-04-16T03:17:02.838Z,48.7
2019-04-16T03:17:52.252Z,48.8
2019-04-16T03:18:48.883Z,48.8
2019-04-16T03:19:32.622Z,48.8
2019-04-16T03:20:28.925Z,48.8
2019-04-16T03:21:13.167Z,48.8
2019-04-16T03:22:08.145Z,48.8
2019-04-16T03:22:52.297Z,48.8
2019-04-16T03:23:42.656Z,48.8
2019-04-16T03:24:32.174Z,48.7
2019-04-16T03:25:22.600Z,48.8
2019-04-16T03:26:19.667Z,48.7
2019-04-16T03:27:07.365Z,48.7
2019-04-16T03:27:58.775Z,48.7
2019-04-16T03:28:43.285Z,48.7
2019-04-16T03:29:36.470Z,48.7
2019-04-16T03:30:22.955Z,48.7
2019-04-16T03:31:27.419Z,48.7
2019-04-16T03:32:04.965Z,48.6
2019-04-16T03:32:54.301Z,48.6
2019-04-16T03:33:54.918Z,48.6
2019-04-16T03:34:33.737Z,48.6
2019-04-16T03:35:29.967Z,48.5
2019-04-16T03:36:13.977Z,48.5
2019-04-16T03:37:07.687Z,48.4
2019-04-16T03:37:53.695Z,48.4
2019-04-16T03:38:47.139Z,48.4
2019-04-16T03:39:34.132Z,48.4
2019-04-16T03:40:30.721Z,48.4
2019-04-16T03:41:15.268Z,48.4
2019-04-16T03:42:04.762Z,48.3
2019-04-16T03:43:04.781Z,48.3
2019-04-16T03:43:43.813Z,48.3
2019-04-16T03:44:40.629Z,48.3
2019-04-16T03:45:24.859Z,48.3
2019-04-16T03:46:18.706Z,48.3
2019-04-16T03:47:04.519Z,48.3
2019-04-16T03:47:56.756Z,48.2
2019-04-16T03:48:44.726Z,48.3
2019-04-16T03:49:33.707Z,48.2
2019-04-16T03:50:24.631Z,48.3
2019-04-16T03:51:14.994Z,48.2
2019-04-16T03:52:12.121Z,48.1
2019-04-16T03:52:54.821Z,48.1
2019-04-16T03:53:51.343Z,48.2
2019-04-16T03:54:34.379Z,48.1
2019-04-16T03:55:31.086Z,48.1
2019-04-16T03:56:15.112Z,48.1
2019-04-16T03:57:08.236Z,48.1
2019-04-16T03:57:55.494Z,48.1
2019-04-16T03:58:45.196Z,48
2019-04-16T03:59:35.606Z,48
2019-04-16T04:00:25.648Z,48.1
2019-04-16T04:01:20.181Z,48
2019-04-16T04:02:06.113Z,48
2019-04-16T04:03:00.002Z,48
2019-04-16T04:03:45.016Z,47.9
2019-04-16T04:04:35.908Z,47.9
2019-04-16T04:05:25.973Z,47.9
2019-04-16T04:06:16.347Z,47.9
2019-04-16T04:07:08.688Z,47.9
2019-04-16T04:07:59.842Z,47.9
2019-04-16T04:08:55.418Z,47.9
2019-04-16T04:09:36.251Z,47.9
2019-04-16T04:10:42.001Z,47.9
2019-04-16T04:11:16.858Z,47.9
2019-04-16T04:12:06.038Z,47.8
2019-04-16T04:12:56.291Z,47.8
2019-04-16T04:13:52.135Z,47.8
2019-04-16T04:14:36.930Z,47.8
2019-04-16T04:15:31.827Z,47.8
2019-04-16T04:16:17.365Z,47.8
2019-04-16T04:17:12.601Z,47.8
2019-04-16T04:17:56.625Z,47.8
2019-04-16T04:18:48.839Z,47.8
2019-04-16T04:19:37.290Z,47.7
2019-04-16T04:20:26.215Z,47.7
2019-04-16T04:21:22.877Z,47.7
2019-04-16T04:22:06.630Z,47.7
2019-04-16T04:23:02.449Z,47.6
2019-04-16T04:23:47.068Z,47.6
2019-04-16T04:24:36.557Z,47.6
2019-04-16T04:25:27.728Z,47.6
2019-04-16T04:26:17.782Z,47.6
2019-04-16T04:27:12.779Z,47.6
2019-04-16T04:27:57.891Z,47.6
2019-04-16T04:28:53.654Z,47.5
2019-04-16T04:29:37.219Z,47.4
2019-04-16T04:30:34.251Z,47.4
2019-04-16T04:31:17.917Z,47.4
2019-04-16T04:32:09.446Z,47.4
2019-04-16T04:32:58.354Z,47.4
2019-04-16T04:33:48.212Z,47.4
2019-04-16T04:34:38.539Z,47.4
2019-04-16T04:35:28.517Z,47.4
2019-04-16T04:36:30.086Z,47.3
2019-04-16T04:37:08.311Z,47.3
2019-04-16T04:38:03.941Z,47.3
2019-04-16T04:38:48.424Z,47.3
2019-04-16T04:39:43.576Z,47.2
2019-04-16T04:40:28.912Z,47.2
2019-04-16T04:41:25.513Z,47.1
2019-04-16T04:42:09.543Z,47.1
2019-04-16T04:43:05.665Z,47.1
2019-04-16T04:43:49.366Z,47
2019-04-16T04:44:42.073Z,47
2019-04-16T04:45:29.175Z,46.9
2019-04-16T04:46:20.840Z,46.9
2019-04-16T04:47:09.526Z,46.9
2019-04-16T04:47:59.070Z,46.8
2019-04-16T04:48:48.856Z,46.8
2019-04-16T04:49:38.611Z,46.8
2019-04-16T04:50:28.763Z,46.8
2019-04-16T04:51:19.137Z,46.7
2019-04-16T04:52:15.646Z,46.7
2019-04-16T04:52:59.419Z,46.6
2019-04-16T04:53:55.425Z,46.5
2019-04-16T04:54:38.985Z,46.4
2019-04-16T04:55:31.162Z,46.4
2019-04-16T04:56:29.694Z,46.4
2019-04-16T04:57:09.770Z,46.4
2019-04-16T04:58:04.460Z,46.3
2019-04-16T04:58:50.123Z,46.2
2019-04-16T04:59:41.527Z,46
2019-04-16T05:00:29.690Z,45.8
2019-04-16T05:01:20.435Z,45.7
2019-04-16T05:02:16.482Z,45.6
2019-04-16T05:02:59.592Z,45.3
2019-04-16T05:03:53.169Z,44.8
2019-04-16T05:04:40.003Z,43.9
2019-04-16T05:05:31.002Z,43.3
2019-04-16T05:06:20.969Z,42.8
2019-04-16T05:07:09.648Z,42.3
2019-04-16T05:08:05.017Z,41.9
2019-04-16T05:08:50.370Z,41.6
2019-04-16T05:09:41.834Z,41.4
2019-04-16T05:10:29.882Z,41.2
2019-04-16T05:11:21.967Z,40.9
2019-04-16T05:12:13.358Z,40.9
2019-04-16T05:13:00.317Z,40.7
2019-04-16T05:13:50.142Z,40.6
2019-04-16T05:14:40.758Z,40.5
2019-04-16T05:15:34.384Z,40.4
2019-04-16T05:16:20.592Z,40.3
2019-04-16T05:17:11.979Z,40.3
2019-04-16T05:18:01.231Z,40.1
2019-04-16T05:18:50.476Z,40.1
2019-04-16T05:19:44.536Z,40
2019-04-16T05:20:35.166Z,39.9
2019-04-16T05:21:24.222Z,39.9
2019-04-16T05:22:11.333Z,39.8
2019-04-16T05:23:03.133Z,39.8
2019-04-16T05:23:56.730Z,39.7
2019-04-16T05:24:43.171Z,39.6
2019-04-16T05:25:37.758Z,39.6
2019-04-16T05:26:22.008Z,39.5
2019-04-16T05:27:14.313Z,39.4
2019-04-16T05:28:02.242Z,39.4
2019-04-16T05:28:52.318Z,39.4
2019-04-16T05:29:41.783Z,39.3
2019-04-16T05:30:31.576Z,39.3
2019-04-16T05:31:31.611Z,39.3
2019-04-16T05:32:12.474Z,39.2
2019-04-16T05:33:08.216Z,39.1
2019-04-16T05:33:52.663Z,39.1
2019-04-16T05:34:43.013Z,39.1
2019-04-16T05:35:31.694Z,39
2019-04-16T05:36:26.593Z,39
2019-04-16T05:37:13.235Z,38.9
2019-04-16T05:38:02.135Z,38.9
2019-04-16T05:38:58.155Z,38.9
2019-04-16T05:39:42.797Z,38.9
2019-04-16T05:40:39.920Z,38.8
2019-04-16T05:41:27.698Z,38.8
2019-04-16T05:42:12.648Z,38.8
2019-04-16T05:43:03.678Z,38.8
2019-04-16T05:43:52.575Z,38.7
2019-04-16T05:44:42.632Z,38.7
2019-04-16T05:45:38.902Z,38.7
2019-04-16T05:46:22.835Z,38.6
2019-04-16T05:47:19.880Z,38.6
2019-04-16T05:48:03.270Z,38.6
2019-04-16T05:48:58.742Z,38.5
2019-04-16T05:49:43.549Z,38.5
2019-04-16T05:50:34.707Z,38.5
2019-04-16T05:51:23.979Z,38.4
2019-04-16T05:52:13.959Z,38.4
2019-04-16T05:53:14.002Z,38.4
2019-04-16T05:53:53.299Z,38.4
2019-04-16T05:54:50.174Z,38.4
2019-04-16T05:55:33.684Z,38.3
2019-04-16T05:56:29.199Z,38.3
2019-04-16T05:57:13.802Z,38.3
2019-04-16T05:58:04.139Z,38.3
2019-04-16T05:58:53.661Z,38.3
2019-04-16T05:59:44.262Z,38.2
2019-04-16T06:00:34.384Z,38.2
2019-04-16T06:01:24.649Z,38.2
2019-04-16T06:02:22.249Z,38.2
2019-04-16T06:03:04.491Z,38.1
2019-04-16T06:05:01.664Z,38.1
2019-04-16T06:05:51.668Z,38.1
2019-04-16T06:06:41.139Z,38.1
2019-04-16T06:07:31.639Z,38
2019-04-16T06:08:21.737Z,38
2019-04-16T06:09:18.972Z,38
2019-04-16T06:10:02.266Z,37.9
2019-04-16T06:10:59.363Z,37.9
2019-04-16T06:11:42.381Z,37.9
2019-04-16T06:12:40.706Z,37.9
2019-04-16T06:13:22.481Z,37.9
2019-04-16T06:14:20.128Z,37.9
2019-04-16T06:15:02.188Z,37.9
2019-04-16T06:15:57.397Z,37.8
2019-04-16T06:16:42.205Z,37.8
2019-04-16T06:17:37.495Z,37.8
2019-04-16T06:18:23.610Z,37.8
2019-04-16T06:19:17.333Z,37.8
2019-04-16T06:20:02.578Z,37.8
2019-04-16T06:20:57.740Z,37.7
2019-04-16T06:21:42.780Z,37.7
2019-04-16T06:22:34.749Z,37.7
2019-04-16T06:23:21.505Z,37.7
2019-04-16T06:24:12.785Z,37.7
2019-04-16T06:25:13.345Z,37.7
2019-04-16T06:25:53.361Z,37.6
2019-04-16T06:26:48.801Z,37.6
2019-04-16T06:27:33.212Z,37.6
2019-04-16T06:28:22.794Z,37.6
2019-04-16T06:29:12.642Z,37.6
2019-04-16T06:30:07.519Z,37.6
2019-04-16T06:30:53.455Z,37.5
2019-04-16T06:31:45.248Z,37.5
2019-04-16T06:32:33.420Z,37.5
2019-04-16T06:33:23.397Z,37.5
2019-04-16T06:34:13.137Z,37.4
2019-04-16T06:35:03.540Z,37.4
2019-04-16T06:35:53.815Z,37.4
2019-04-16T06:36:44.212Z,37.4
2019-04-16T06:37:33.932Z,37.4
2019-04-16T06:38:23.737Z,37.4
2019-04-16T06:39:14.157Z,37.4
2019-04-16T06:40:06.694Z,37.4
2019-04-16T06:40:53.940Z,37.3
2019-04-16T06:41:56.087Z,37.3
2019-04-16T06:42:33.772Z,37.3
2019-04-16T06:43:30.959Z,37.3
2019-04-16T06:44:14.655Z,37.3
2019-04-16T06:45:10.424Z,37.3
2019-04-16T06:45:54.561Z,37.3
2019-04-16T06:46:45.235Z,37.3
2019-04-16T06:47:34.391Z,37.3
2019-04-16T06:48:24.431Z,37.2
2019-04-16T06:49:21.741Z,37.3
2019-04-16T06:50:05.193Z,37.2
2019-04-16T06:50:54.946Z,37.2
2019-04-16T06:51:49.588Z,37.2
2019-04-16T06:52:34.766Z,37.2
2019-04-16T06:53:33.388Z,37.1
2019-04-16T06:54:16.639Z,37.1
2019-04-16T06:55:08.972Z,37.1
2019-04-16T06:55:55.288Z,37.1
2019-04-16T06:56:45.538Z,37.1
2019-04-16T06:57:35.401Z,37.1
2019-04-16T06:58:30.411Z,37.1
2019-04-16T06:59:19.551Z,37.1
2019-04-16T07:00:11.741Z,37
2019-04-16T07:00:55.443Z,37.1
2019-04-16T07:01:47.338Z,37
2019-04-16T07:03:03.733Z,37
2019-04-16T07:05:06.352Z,36.9
2019-04-16T07:05:51.940Z,36.9
2019-04-16T07:06:45.396Z,36.9
2019-04-16T07:07:50.111Z,36.9
2019-04-16T07:08:42.257Z,36.9
2019-04-16T07:09:10.763Z,36.9
2019-04-16T07:10:02.470Z,36.9
2019-04-16T07:10:52.102Z,36.9
2019-04-16T07:11:56.425Z,36.9
2019-04-16T07:12:37.879Z,36.8
2019-04-16T07:13:21.957Z,36.8
2019-04-16T07:14:20.087Z,36.8
2019-04-16T07:15:02.105Z,36.8
2019-04-16T07:15:58.882Z,36.8
2019-04-16T07:16:42.645Z,36.8
2019-04-16T07:17:42.437Z,36.8
2019-04-16T07:18:26.159Z,36.8
2019-04-16T07:19:20.184Z,36.8
2019-04-16T07:20:06.294Z,36.8
2019-04-16T07:20:52.692Z,45.9
2019-04-16T07:21:42.650Z,51.4
2019-04-16T07:22:32.412Z,51.3
2019-04-16T07:23:29.816Z,50.4
2019-04-16T07:24:13.486Z,49.4
2019-04-16T07:25:11.487Z,48.5
2019-04-16T07:25:55.639Z,47.7
2019-04-16T07:26:58.013Z,47.3
2019-04-16T07:27:42.890Z,46.6
2019-04-16T07:28:31.108Z,46.1
2019-04-16T07:29:15.299Z,45.8
2019-04-16T07:30:19.125Z,45.4
2019-04-16T07:30:54.412Z,51.7
2019-04-16T07:31:44.239Z,51.7
2019-04-16T07:32:34.249Z,53.1
2019-04-16T07:33:23.855Z,54.8
2019-04-16T07:34:13.261Z,54.8
2019-04-16T07:35:04.043Z,53.2
2019-04-16T07:35:54.118Z,51.5
2019-04-16T07:36:43.566Z,50.4
2019-04-16T07:37:37.536Z,49.7
2019-04-16T07:38:22.866Z,48.9
2019-04-16T07:39:38.936Z,48.4
2019-04-16T07:40:11.564Z,47.4
2019-04-16T07:40:54.455Z,49.6
2019-04-16T07:41:48.416Z,52.9
2019-04-16T07:42:34.243Z,53.1
2019-04-16T07:44:11.479Z,56.6
2019-04-16T07:44:47.736Z,56.6
2019-04-16T07:45:37.243Z,56.2
2019-04-16T07:46:27.371Z,55.4
2019-04-16T07:47:23.443Z,54.8
2019-04-16T07:48:12.019Z,54.6
2019-04-16T07:49:01.113Z,54.6
2019-04-16T07:50:04.251Z,54.8
2019-04-16T07:50:38.592Z,54.9
2019-04-16T07:51:28.247Z,54.8
2019-04-16T07:52:17.977Z,54.8
2019-04-16T07:53:14.438Z,54.6
2019-04-16T07:53:58.511Z,54.6
2019-04-16T07:54:48.175Z,54.5
2019-04-16T07:55:38.237Z,54.5
2019-04-16T07:56:28.299Z,54.6
2019-04-16T07:57:18.075Z,54.6
2019-04-16T07:58:08.791Z,54.6
2019-04-16T07:59:04.929Z,54.9
2019-04-16T07:59:48.630Z,55.4
2019-04-16T08:00:44.959Z,55.9
2019-04-16T08:01:27.852Z,56.4
2019-04-16T08:02:26.017Z,56.7
2019-04-16T08:03:10.174Z,56.9
2019-04-16T08:04:08.227Z,57.1
2019-04-16T08:04:48.904Z,57.3
2019-04-16T08:05:45.255Z,57.4
2019-04-16T08:06:29.309Z,57.6
2019-04-16T08:08:09.672Z,57.7
2019-04-16T08:09:03.222Z,57.6
2019-04-16T08:09:49.328Z,57.4
2019-04-16T08:10:39.627Z,57.2
2019-04-16T08:11:28.922Z,57.1
2019-04-16T08:12:34.539Z,57.1
2019-04-16T08:13:09.314Z,57.2
2019-04-16T08:14:00.364Z,57.3
2019-04-16T08:14:49.646Z,57.4
2019-04-16T08:15:40.114Z,57.6
2019-04-16T08:16:30.039Z,57.8
2019-04-16T08:17:19.879Z,57.9
2019-04-16T08:18:09.942Z,58
2019-04-16T08:18:59.499Z,58.1
2019-04-16T08:19:58.550Z,58.3
2019-04-16T08:20:40.105Z,58.3
2019-04-16T08:21:29.850Z,58.3
2019-04-16T08:22:22.078Z,58.4
2019-04-16T08:24:00.913Z,58.8
2019-04-16T08:24:49.627Z,58.9
2019-04-16T08:25:39.615Z,59.2
2019-04-16T08:26:30.224Z,59.5
2019-04-16T08:27:24.317Z,59.8
2019-04-16T08:28:12.524Z,60
2019-04-16T08:29:01.642Z,60.1
2019-04-16T08:29:49.657Z,60.1
2019-04-16T08:30:44.200Z,60.1
2019-04-16T08:31:30.574Z,60.2
2019-04-16T08:32:21.429Z,60.3
2019-04-16T08:33:14.889Z,60.4
2019-04-16T08:34:00.997Z,60.6
2019-04-16T08:34:51.179Z,60.6
2019-04-16T08:35:41.169Z,60.9
2019-04-16T08:36:30.674Z,61.1
2019-04-16T08:37:21.304Z,61.3
2019-04-16T08:38:11.339Z,61.6
2019-04-16T08:39:07.834Z,61.8
2019-04-16T08:39:51.191Z,61.9
2019-04-16T08:40:46.941Z,61.8
2019-04-16T08:41:31.593Z,61.4
2019-04-16T08:42:46.084Z,61.3
2019-04-16T08:43:12.170Z,61
2019-04-16T08:44:12.699Z,60.9
2019-04-16T08:44:51.899Z,60.9
2019-04-16T08:45:44.960Z,60.9
2019-04-16T08:46:32.992Z,60.9
2019-04-16T08:47:22.286Z,61
2019-04-16T08:48:21.694Z,61.1
2019-04-16T08:49:01.915Z,61.1
2019-04-16T08:49:59.138Z,61.1
2019-04-16T08:50:41.693Z,61.1
2019-04-16T08:51:41.473Z,61.1
2019-04-16T08:52:22.689Z,61.2
2019-04-16T08:53:18.213Z,61.3
2019-04-16T08:54:02.229Z,61.1
2019-04-16T08:54:58.708Z,61.1
2019-04-16T08:55:42.653Z,61.1
2019-04-16T08:56:32.683Z,61.3
2019-04-16T08:57:22.010Z,61.5
2019-04-16T08:58:16.561Z,61.9
2019-04-16T08:59:13.122Z,62.1
2019-04-16T08:59:52.135Z,62.2
2019-04-16T09:00:49.663Z,62.3
2019-04-16T09:01:33.006Z,62.4
2019-04-16T09:02:29.270Z,62.3
2019-04-16T09:03:16.345Z,62.1
2019-04-16T09:04:07.494Z,62.1
2019-04-16T09:04:51.617Z,62.3
2019-04-16T09:05:46.408Z,62.7
2019-04-16T09:06:32.616Z,63.2
2019-04-16T09:07:26.034Z,63.4
2019-04-16T09:08:24.229Z,63.4
2019-04-16T09:09:29.308Z,63.1
2019-04-16T09:10:00.212Z,62.8
2019-04-16T09:10:47.110Z,62.4
2019-04-16T09:11:39.448Z,62.4
2019-04-16T09:12:24.510Z,62.3
2019-04-16T09:13:17.094Z,62.2
2019-04-16T09:14:03.745Z,62.2
2019-04-16T09:15:01.117Z,62.1
2019-04-16T09:15:58.549Z,62.1
2019-04-16T09:16:33.610Z,61.9
2019-04-16T09:17:23.943Z,61.9
2019-04-16T09:18:14.004Z,61.8
2019-04-16T09:19:04.017Z,61.9
2019-04-16T09:19:53.566Z,62.2
2019-04-16T09:20:44.719Z,62.4
2019-04-16T09:21:34.544Z,62.4
2019-04-16T09:22:24.809Z,62.3
2019-04-16T09:23:15.044Z,62.2
2019-04-16T09:24:14.504Z,62.1
2019-04-16T09:24:55.070Z,62.1
2019-04-16T09:25:50.971Z,62.4
2019-04-16T09:26:49.629Z,63.1
2019-04-16T09:27:35.532Z,63.4
2019-04-16T09:28:35.026Z,63.6
2019-04-16T09:29:14.939Z,63.8
2019-04-16T09:29:54.394Z,63.9
2019-04-16T09:30:51.696Z,64
2019-04-16T09:31:34.989Z,64.1
2019-04-16T09:32:31.601Z,64.3
2019-04-16T09:33:15.020Z,64.4
2019-04-16T09:34:11.901Z,64.5
2019-04-16T09:35:20.899Z,64.7
2019-04-16T09:35:48.939Z,64.8
2019-04-16T09:36:35.076Z,64.9
2019-04-16T09:37:32.224Z,65.1
2019-04-16T09:38:17.815Z,65.1
2019-04-16T09:39:05.923Z,65.2
2019-04-16T09:39:56.136Z,65.1
2019-04-16T09:40:49.444Z,64.8
2019-04-16T09:41:36.510Z,64.8
2019-04-16T09:42:26.088Z,64.6
2019-04-16T09:43:23.458Z,64.6
2019-04-16T09:44:05.927Z,64.8
2019-04-16T09:44:55.958Z,64.9
2019-04-16T09:45:46.345Z,65
2019-04-16T09:47:06.633Z,65
2019-04-16T09:47:28.862Z,64.7
2019-04-16T09:48:16.635Z,64.6
2019-04-16T09:49:10.794Z,64.3
2019-04-16T09:49:56.299Z,64.1
2019-04-16T09:50:52.950Z,63.9
2019-04-16T09:51:36.718Z,64.1
2019-04-16T09:52:29.142Z,64.4
2019-04-16T09:53:17.284Z,65
2019-04-16T09:54:12.157Z,65.4
2019-04-16T09:54:56.944Z,65.6
2019-04-16T09:55:53.158Z,65.5
2019-04-16T09:56:37.109Z,65.1
2019-04-16T09:57:35.144Z,64.9
2019-04-16T09:58:17.237Z,64.6
2019-04-16T09:59:07.026Z,64.5
2019-04-16T09:59:57.292Z,64.4
2019-04-16T10:00:50.002Z,64.4
2019-04-16T10:01:37.475Z,64.3
2019-04-16T10:02:27.709Z,64.3
2019-04-16T10:03:18.165Z,64.1
2019-04-16T10:06:01.664Z,63.8
2019-04-16T10:06:51.459Z,63.6
2019-04-16T10:07:44.951Z,63.4
2019-04-16T10:08:34.381Z,63.2
2019-04-16T10:09:27.423Z,63
2019-04-16T10:10:11.823Z,62.9
2019-04-16T10:11:10.743Z,62.8
2019-04-16T10:11:52.363Z,62.6
2019-04-16T10:12:42.331Z,62.5
2019-04-16T10:13:40.957Z,62.1
2019-04-16T10:14:22.203Z,61.1
2019-04-16T10:15:12.498Z,60.3
2019-04-16T10:16:02.101Z,59.6
2019-04-16T10:16:52.303Z,59.1
2019-04-16T10:17:42.321Z,58.8
2019-04-16T10:18:39.084Z,58.5
2019-04-16T10:19:26.972Z,57.9
2019-04-16T10:20:13.289Z,57.3
2019-04-16T10:21:02.361Z,56.8
2019-04-16T10:21:59.112Z,56.2
2019-04-16T10:22:42.520Z,55.6
2019-04-16T10:23:33.142Z,55.3
2019-04-16T10:24:23.190Z,54.8
2019-04-16T10:25:13.022Z,59.3
2019-04-16T10:26:02.945Z,60.6
2019-04-16T10:26:52.851Z,61.1
2019-04-16T10:27:43.143Z,62.5
2019-04-16T10:28:39.037Z,62.8
2019-04-16T10:29:23.954Z,62.8
2019-04-16T10:30:13.256Z,62.5
2019-04-16T10:31:03.408Z,62.1
2019-04-16T10:31:53.680Z,61.9
2019-04-16T10:32:43.675Z,61.9
2019-04-16T10:33:33.235Z,61.9
2019-04-16T10:34:23.670Z,61.9
2019-04-16T10:35:13.901Z,61.8
2019-04-16T10:36:10.559Z,61.8
2019-04-16T10:36:53.419Z,61.8
2019-04-16T10:37:43.877Z,61.7
2019-04-16T10:38:33.977Z,61.6
2019-04-16T10:39:24.457Z,61.6
2019-04-16T10:40:14.469Z,61.5
2019-04-16T10:41:04.007Z,61.4
2019-04-16T10:41:56.885Z,61.4
2019-04-16T10:42:44.300Z,61.3
2019-04-16T10:43:48.402Z,61.3
2019-04-16T10:44:23.808Z,61.4
2019-04-16T10:45:14.215Z,61.4
2019-04-16T10:46:04.775Z,61.4
2019-04-16T10:46:54.667Z,61.3
2019-04-16T10:47:44.710Z,61.3
2019-04-16T10:48:34.978Z,61.4
2019-04-16T10:49:24.492Z,61.4
2019-04-16T10:50:13.444Z,61.6
2019-04-16T10:51:05.200Z,61.7
2019-04-16T10:51:54.924Z,61.9
2019-04-16T10:52:45.243Z,62.3
2019-04-16T10:53:34.221Z,62.8
2019-04-16T10:54:24.281Z,62.9
2019-04-16T10:55:20.907Z,62.9
2019-04-16T10:56:05.587Z,62.8
2019-04-16T10:57:02.096Z,62.5
2019-04-16T10:57:45.194Z,62.2
2019-04-16T10:58:35.354Z,62.1
2019-04-16T10:59:25.437Z,62.1
2019-04-16T11:00:15.222Z,62.2
2019-04-16T11:01:05.945Z,62.4
2019-04-16T11:01:55.328Z,62.4
2019-04-16T11:02:44.940Z,62.3
2019-04-16T11:03:40.133Z,62.1
2019-04-16T11:04:26.298Z,61.8
2019-04-16T11:05:23.327Z,61.5
2019-04-16T11:06:06.053Z,61.3
2019-04-16T11:06:55.803Z,61.1
2019-04-16T11:07:46.733Z,61
2019-04-16T11:08:37.141Z,60.9
2019-04-16T11:09:26.226Z,60.8
2019-04-16T11:10:17.222Z,60.1
2019-04-16T11:11:06.353Z,59.3
2019-04-16T11:12:46.961Z,57.9
2019-04-16T11:13:36.476Z,57.4
2019-04-16T11:14:26.393Z,56.9
2019-04-16T11:15:16.493Z,56.4
2019-04-16T11:16:06.557Z,55.9
2019-04-16T11:16:56.895Z,55.4
2019-04-16T11:17:46.938Z,54.9
2019-04-16T11:18:36.641Z,54.4